YCWS weather

Cowes Airport
Victoria, Australia

Public forecast

Using degrees Celsius for public forecast. Weather courtesy of forecast.io.

Closest aviation weather report (METAR) to Cowes Airport

Closest report is Avalon Airport, 45.0 nm (83.3 km) NW. Retrieved 2019/10/17 21:30 UTC (0 seconds ago):

YMAV 172130Z AUTO 35010KT 9999 // NCD 11/05 Q1015 RF000/0000

Closest aviation forecast (TAF) to Cowes Airport

Closest forecast is Avalon Airport, 45.0 nm (83.3 km) NW. Retrieved 2019/10/17 18:00 UTC (3 hours ago):

TAF YMAV 171703Z 1718/1818 34008KT 9999 SCT030 FM172200 32016G32KT 9999 SCT030 FM180200 30022G40KT 9999 FEW045 BECMG 1807/1808 27015G25KT 9999 -SHRA SCT030 BKN050 FM181000 27012KT 9999 SCT040